KSCK/SCK METAR and TAF weather

Enter ICAO airport designator
Station Type Date Time Source
KSCK METAR 2019/02/22 23:55 UTC NOAA

KSCK 222355Z 29007KT 10SM CLR 13/M04 A3011 RMK AO2 SLP196 T01281039 10133 20083 53002


Station Type Date Time Source
KSCK Decoded METAR 2019/02/22 23:55 UTC NOAA

STOCKTON METROPOLITAN AIRPORT , CA, United States (KSCK) 37-54N 121-14W 10M
Feb 22, 2019 - 06:55 PM EST / 2019.02.22 2355 UTC
Wind: from the WNW (290 degrees) at 8 MPH (7 KT):0
Visibility: 10 mile(s):0
Sky conditions: clear
Temperature: 55.0 F (12.8 C)
Dew Point: 25.0 F (-3.9 C)
Relative Humidity: 30%
Pressure (altimeter): 30.11 in. Hg (1019 hPa)
Pressure tendency: 0.01 inches (0.2 hPa) higher than three hours ago
ob: KSCK 222355Z 29007KT 10SM CLR 13/M04 A3011 RMK AO2 SLP196 T01281039 10133 20083 53002
cycle: 0

Station Type Date Time Source
KSCK TAF 2019/02/22 18:24 UTC NOAA

TAF KSCK 221723Z 2218/2318 30009KT P6SM SKC
FM230400 14003KT P6SM SKC
FM231500 13003KT P6SM SCT250


Example: see airport list